Aérodrome :
LOGIN :

S'inscrire | Disclaimer

   EN    FR    IT 

 










Légende :    VFR   VFR Marginal   IFR   IFR Intensif   IFR Très Intensif
Visi : 
Plafond : 
>= 8 km
>= 3000ft
5 à 8 km
1000 à 3000 ft
1500m à 5 km
500 à 1000 ft
800 à 1500m
200 à 500 ft
< 800m
< 200 ft
Symboles :   Orages  Brouillard  Fortes neiges  Fortes précipitations  Vent > 20 kt
SIGMETs :   Divers  Orages  Givrage  Turbulence  Onde Orograph.  Cendres Volcan.






- Altitude de l'aérodrome : 290 ft
- Code IATA : LAI


LFRO - Lannion

DERNIER METAR :
  • 131700Z AUTO 34003KT 300V030 9999 OVC009/// ///CB 21/18 Q1014

METARs EXPIRÉS :
  • 131630Z AUTO 33006KT 280V010 9999 OVC010/// ///CB 21/18 Q1013
  • 131600Z AUTO 02005KT 340V080 9999 BKN009/// ///CB 21/18 Q1013
  • 131530Z AUTO 01008KT 330V040 9999 BKN008/// BKN140/// ///CB 21/18 Q1013
  • 131500Z AUTO 36007KT 300V030 9999 FEW010/// SCT052/// BKN130/// ///CB 22/19 Q1013
  • 131430Z AUTO 33008KT 300V360 9999 FEW039/// BKN140/// ///CB 23/19 Q1013

Prévision TAF périmée.



MET'MAP, la Météo Aéronautique d'un coup d'oeil ! - Copyright ORBIFLY Décembre 2007 - Disclaimer

ORBIFLY MET'MAP TEAM :

Programmation & Développement : Alexandra Zaïnal
Sur une idée originale de : Baudouin d'Aumeries
Assistance à la programmation : Marc-Olivier Méhu
Soutien technique & logistique : Manuel Goepfert

Contact : metmap@orbifly.com




SOURCES & CREDITS :

   NOAA